createdAt,value
2017-03-01T10:21:14.789Z,995.94
2017-03-01T10:21:55.283Z,996.03
2017-03-01T10:22:35.760Z,996.01
2017-03-01T10:23:16.241Z,995.89
2017-03-01T10:23:56.726Z,995.95
2017-03-01T10:24:37.219Z,995.86
2017-03-01T10:25:17.681Z,996.09
2017-03-01T10:25:58.146Z,995.96
2017-03-01T10:27:55.790Z,995.99
2017-03-01T10:28:36.308Z,996.13
2017-03-01T10:29:16.803Z,995.93
2017-03-01T10:29:57.284Z,995.95
2017-03-01T10:30:37.758Z,996.06
2017-03-01T10:31:18.233Z,996.11
2017-03-01T10:31:58.678Z,996.25
2017-03-01T10:32:39.128Z,996.36
2017-03-01T10:33:19.578Z,996.43
2017-03-01T10:34:00.047Z,996.38
2017-03-01T10:34:40.507Z,996.47
2017-03-01T10:35:20.965Z,996.38
2017-03-01T10:36:01.441Z,996.31
2017-03-01T10:38:14.171Z,996.28
2017-03-01T10:38:54.591Z,996.32
2017-03-01T10:39:35.445Z,996.33
2017-03-01T10:40:15.862Z,996.28
2017-03-01T10:40:56.295Z,996.25
2017-03-01T10:41:36.780Z,996.3
2017-03-01T10:42:17.223Z,996.31
2017-03-01T10:42:57.703Z,996.22
2017-03-01T10:43:38.199Z,996.18
2017-03-01T10:45:35.844Z,996.47
2017-03-01T10:46:16.331Z,996.46
2017-03-01T10:46:56.825Z,996.46
2017-03-01T10:47:37.229Z,996.52
2017-03-01T10:48:17.690Z,996.43
2017-03-01T10:48:58.167Z,996.52
2017-03-01T10:49:38.620Z,996.52
2017-03-01T10:50:19.079Z,996.48
2017-03-01T10:50:59.535Z,996.48
2017-03-01T10:51:40.018Z,996.31
2017-03-01T10:52:20.413Z,996.29
2017-03-01T10:53:00.886Z,996.36
2017-03-01T10:53:41.369Z,996.32
2017-03-01T10:54:21.909Z,996.45
2017-03-01T10:55:02.411Z,996.54
2017-03-01T10:55:42.899Z,996.53
2017-03-01T10:56:23.343Z,996.48
2017-03-01T10:57:03.808Z,996.72
2017-03-01T10:57:44.237Z,996.59
2017-03-01T10:58:24.735Z,996.76
2017-03-01T10:59:05.141Z,996.69
2017-03-01T10:59:45.579Z,996.75
2017-03-01T11:00:26.061Z,996.61
2017-03-01T11:01:06.496Z,996.32
2017-03-01T11:01:46.952Z,996.17
2017-03-01T11:02:27.432Z,996.28
2017-03-01T11:03:07.867Z,996.33
2017-03-01T11:03:48.327Z,996.27
2017-03-01T11:04:28.793Z,996.5
2017-03-01T11:05:09.249Z,996.49
2017-03-01T11:05:49.696Z,996.43
2017-03-01T11:06:30.179Z,996.66
2017-03-01T11:07:10.634Z,996.59
2017-03-01T11:07:51.086Z,996.43
2017-03-01T11:08:31.544Z,996.32
2017-03-01T11:09:11.991Z,996.25
2017-03-01T11:09:52.498Z,996.26
2017-03-01T11:10:32.992Z,996.16
2017-03-01T11:11:13.494Z,996.11
2017-03-01T11:11:54.118Z,996.24
2017-03-01T11:12:34.588Z,996.21
2017-03-01T11:13:15.048Z,996.08
2017-03-01T11:13:55.507Z,996.18
2017-03-01T11:14:35.965Z,996.17
2017-03-01T11:15:16.426Z,996.1
2017-03-01T11:15:56.908Z,996.17
2017-03-01T11:16:37.346Z,996.41
2017-03-01T11:17:17.851Z,996.2
2017-03-01T11:17:58.297Z,996.1
2017-03-01T11:18:38.813Z,996.14
2017-03-01T11:19:19.284Z,996.03
2017-03-01T11:19:59.769Z,995.85
2017-03-01T11:20:40.256Z,995.83
2017-03-01T11:21:20.747Z,996
2017-03-01T11:22:01.170Z,996
2017-03-01T11:22:41.619Z,996
2017-03-01T11:23:22.075Z,996
2017-03-01T11:24:02.488Z,996
2017-03-01T11:24:42.902Z,996
2017-03-01T11:25:23.314Z,996
2017-03-01T11:26:03.745Z,996
2017-03-01T11:26:44.158Z,996
2017-03-01T11:27:24.573Z,996
2017-03-01T11:28:04.987Z,996
2017-03-01T11:28:45.526Z,996.29
2017-03-01T11:29:25.952Z,996.64
2017-03-01T11:30:06.409Z,996.37
2017-03-01T11:30:46.847Z,996.21
2017-03-01T11:31:27.310Z,996.33
2017-03-01T11:32:07.767Z,996.23
2017-03-01T11:32:48.232Z,996.54
2017-03-01T11:33:28.730Z,996.67
2017-03-01T11:34:09.227Z,996.39
2017-03-01T11:34:49.759Z,996.38
2017-03-01T11:35:30.274Z,996.32
2017-03-01T11:36:10.714Z,996.27
2017-03-01T11:36:51.274Z,996.34
2017-03-01T11:37:31.819Z,996.43
2017-03-01T11:39:29.450Z,996.67
2017-03-01T11:40:09.912Z,996.44
2017-03-01T11:40:50.404Z,996.51
2017-03-01T11:41:30.893Z,996.71
2017-03-01T11:42:11.359Z,996.72
2017-03-01T11:42:51.841Z,996.76
2017-03-01T11:43:32.565Z,997.02
2017-03-01T11:44:13.064Z,996.79
2017-03-01T11:44:53.528Z,996.76
2017-03-01T11:45:34.019Z,996.75
2017-03-01T11:46:14.503Z,996.94
2017-03-01T11:46:54.992Z,996.83
2017-03-01T11:47:35.500Z,996.78
2017-03-01T11:48:15.992Z,996.63
2017-03-01T11:48:56.467Z,996.58
2017-03-01T11:49:36.961Z,996.69
2017-03-01T11:50:17.444Z,996.75
2017-03-01T11:50:57.931Z,996.69
2017-03-01T11:51:38.410Z,996.43
2017-03-01T11:52:18.914Z,996.4
2017-03-01T11:52:59.394Z,996.53
2017-03-01T11:53:39.860Z,996.55
2017-03-01T11:54:20.315Z,996.64
2017-03-01T11:55:00.785Z,996.51
2017-03-01T11:55:41.275Z,996.63
2017-03-01T11:56:21.782Z,996.55
2017-03-01T11:57:02.259Z,996.11
2017-03-01T11:57:42.728Z,996.28
2017-03-01T11:58:23.204Z,996.32
2017-03-01T11:59:03.723Z,996.33
2017-03-01T11:59:44.202Z,996.58
2017-03-01T12:00:24.689Z,996.52
2017-03-01T12:01:05.208Z,996.45
2017-03-01T12:01:45.753Z,996.5
2017-03-01T12:02:26.233Z,996.37
2017-03-01T12:03:06.706Z,996.37
2017-03-01T12:03:47.201Z,996.42
2017-03-01T12:04:27.719Z,996.53
2017-03-01T12:05:08.197Z,996.36
2017-03-01T12:05:48.690Z,996.5
2017-03-01T12:06:29.203Z,996.55
2017-03-01T12:07:09.669Z,996.78
2017-03-01T12:07:50.195Z,996.24
2017-03-01T12:08:30.679Z,995.99
2017-03-01T12:09:11.168Z,996.27
2017-03-01T12:09:51.626Z,996.83
2017-03-01T12:10:32.172Z,996.76
2017-03-01T12:11:12.619Z,996.52
2017-03-01T12:11:53.095Z,996.36
2017-03-01T12:12:33.582Z,996.49
2017-03-01T12:13:14.061Z,996.22
2017-03-01T12:13:54.563Z,996.23
2017-03-01T12:14:35.063Z,996.02
2017-03-01T12:15:15.535Z,996.11
2017-03-01T12:15:56.024Z,996.26
2017-03-01T12:16:36.580Z,996.29
2017-03-01T12:17:17.074Z,996.26
2017-03-01T12:17:57.569Z,996.4
2017-03-01T12:18:38.051Z,996.09
2017-03-01T12:19:18.538Z,995.79
2017-03-01T12:19:59.053Z,995.55
2017-03-01T12:20:39.523Z,995.71
2017-03-01T12:21:19.997Z,995.62
2017-03-01T12:22:00.460Z,995.61
2017-03-01T12:22:40.980Z,995.71
2017-03-01T12:23:21.464Z,995.58
2017-03-01T12:24:01.949Z,995.59
2017-03-01T12:24:42.422Z,996.11
2017-03-01T12:25:22.881Z,995.63
2017-03-01T12:26:03.324Z,995.88
2017-03-01T12:26:43.833Z,996.17
2017-03-01T12:27:24.309Z,995.88
2017-03-01T12:28:05.733Z,996.03
2017-03-01T12:28:46.259Z,995.51
2017-03-01T12:29:26.767Z,995.44
2017-03-01T12:30:07.255Z,995.58
2017-03-01T12:30:47.721Z,995.69
2017-03-01T12:31:28.194Z,995.19
2017-03-01T12:32:08.719Z,995.19
2017-03-01T12:32:49.157Z,995.19
2017-03-01T12:33:29.591Z,995.19
2017-03-01T12:35:57.472Z,995.97
2017-03-01T12:36:37.936Z,995.53
2017-03-01T12:37:18.416Z,995.68
2017-03-01T12:37:58.967Z,995.47
2017-03-01T12:38:39.400Z,995.63
2017-03-01T12:39:19.902Z,995.46
2017-03-01T12:40:00.400Z,995.45
2017-03-01T12:40:40.885Z,995.64
2017-03-01T12:41:21.388Z,995.63
2017-03-01T12:42:01.868Z,995.57
2017-03-01T12:42:43.254Z,995.72
2017-03-01T12:43:23.749Z,995.84
2017-03-01T12:44:04.232Z,995.83
2017-03-01T12:44:44.731Z,995.5
2017-03-01T12:45:25.214Z,995.59
2017-03-01T12:46:05.669Z,995.46
2017-03-01T12:46:46.159Z,995.63
2017-03-01T12:47:26.621Z,995.75
2017-03-01T12:48:07.128Z,995.74
2017-03-01T12:48:47.619Z,995.78
2017-03-01T12:49:28.097Z,995.96
2017-03-01T12:50:08.550Z,995.63
2017-03-01T12:50:49.025Z,995.7
2017-03-01T12:51:29.466Z,996.01
2017-03-01T12:52:09.933Z,995.9
2017-03-01T12:52:50.428Z,995.67
2017-03-01T12:53:30.895Z,995.66
2017-03-01T12:54:11.407Z,995.8
2017-03-01T12:54:51.835Z,995.67
2017-03-01T12:55:32.294Z,995.74
2017-03-01T12:56:12.807Z,995.51
2017-03-01T12:56:53.274Z,995.75
2017-03-01T12:57:33.758Z,995.68
2017-03-01T12:58:14.221Z,995.43
2017-03-01T12:58:54.683Z,995.73
2017-03-01T12:59:35.149Z,995.54
2017-03-01T13:00:15.633Z,995.6
2017-03-01T13:00:56.069Z,995.49
2017-03-01T13:01:36.598Z,995.48
2017-03-01T13:02:17.074Z,995.35
2017-03-01T13:04:34.972Z,995.37
2017-03-01T13:05:15.455Z,995.35
2017-03-01T13:05:55.904Z,995.49
2017-03-01T13:06:36.316Z,995.43
2017-03-01T13:07:16.809Z,995.44
2017-03-01T13:07:57.324Z,995.35
2017-03-01T13:08:37.789Z,995.27
2017-03-01T13:09:18.258Z,995.27
2017-03-01T13:09:58.657Z,995.27
2017-03-01T13:11:51.174Z,0
2017-03-01T13:12:31.626Z,0
2017-03-01T13:13:12.069Z,0
2017-03-01T13:13:52.439Z,0
2017-03-01T13:14:32.843Z,0
2017-03-01T13:15:13.262Z,0
2017-03-01T13:15:53.682Z,0
2017-03-01T13:16:34.109Z,0
2017-03-01T13:17:14.517Z,0
2017-03-01T13:17:54.945Z,0
2017-03-01T13:18:35.386Z,0
2017-03-01T13:21:03.246Z,0
2017-03-01T13:21:43.654Z,0
2017-03-01T13:22:24.123Z,0
2017-03-01T13:23:04.549Z,0
2017-03-01T13:23:45.017Z,0
2017-03-01T13:24:25.463Z,0
2017-03-01T13:25:05.895Z,0
2017-03-01T13:25:46.337Z,0
2017-03-01T13:26:26.748Z,0
2017-03-01T13:27:07.169Z,0
2017-03-01T13:27:47.607Z,0
2017-03-01T13:28:28.031Z,0
2017-03-01T13:29:08.469Z,0
2017-03-01T13:29:48.851Z,0
2017-03-01T13:30:29.236Z,0
2017-03-01T13:31:09.645Z,0
2017-03-01T13:31:50.039Z,0
2017-03-01T13:32:30.458Z,0
2017-03-01T13:33:10.879Z,0
2017-03-01T13:35:08.460Z,0
2017-03-01T13:35:48.859Z,0
2017-03-01T13:36:29.316Z,0
2017-03-01T13:37:09.742Z,0
2017-03-01T13:37:50.204Z,0
2017-03-01T13:38:30.676Z,0
2017-03-01T13:39:11.120Z,0
2017-03-01T13:39:51.573Z,0
2017-03-01T13:40:32.010Z,0
2017-03-01T13:41:13.358Z,0
2017-03-01T13:41:53.809Z,0
2017-03-01T13:42:34.268Z,0
2017-03-01T13:43:14.776Z,0
2017-03-01T13:43:55.275Z,0
2017-03-01T13:44:35.727Z,0
2017-03-01T13:45:16.155Z,0
2017-03-01T13:45:56.606Z,0
2017-03-01T13:46:37.063Z,0
2017-03-01T13:47:17.504Z,0
2017-03-01T13:47:57.931Z,0
2017-03-01T13:48:38.373Z,0
2017-03-01T13:49:18.818Z,0
2017-03-01T13:49:59.252Z,0
2017-03-01T13:50:39.678Z,0
2017-03-01T13:51:20.138Z,0
2017-03-01T13:52:00.577Z,0
2017-03-01T13:52:41.027Z,0
2017-03-01T13:53:21.485Z,0
2017-03-01T13:54:01.915Z,0
2017-03-01T13:54:42.359Z,0
2017-03-01T13:55:22.768Z,0
2017-03-01T13:56:03.163Z,0
2017-03-01T13:56:43.581Z,0
2017-03-01T13:57:24.080Z,0
2017-03-01T13:58:04.514Z,0
2017-03-01T13:58:44.955Z,0
2017-03-01T13:59:25.416Z,0
2017-03-01T14:00:05.873Z,0
2017-03-01T14:00:46.376Z,0
2017-03-01T14:01:26.828Z,0
2017-03-01T14:02:07.271Z,0
2017-03-01T14:02:47.718Z,0
2017-03-01T14:03:28.197Z,0
2017-03-01T14:04:08.616Z,0
2017-03-01T14:04:49.080Z,0
2017-03-01T14:05:29.540Z,0
2017-03-01T14:06:10.001Z,0
2017-03-01T14:06:50.468Z,0
2017-03-01T14:07:30.899Z,0
2017-03-01T14:08:11.340Z,0
2017-03-01T14:08:51.781Z,0
2017-03-01T14:09:32.201Z,0
2017-03-01T14:10:12.630Z,0
2017-03-01T14:10:53.048Z,0
2017-03-01T14:11:33.448Z,0
2017-03-01T14:12:13.888Z,0
2017-03-01T14:12:54.279Z,0
2017-03-01T14:13:34.716Z,0
2017-03-01T14:14:15.172Z,0
2017-03-01T14:14:55.638Z,0
2017-03-01T14:15:36.087Z,0
2017-03-01T14:16:16.530Z,0
2017-03-01T14:16:56.981Z,0
2017-03-01T14:17:37.399Z,0
2017-03-01T14:18:17.861Z,0
2017-03-01T14:18:58.341Z,0
2017-03-01T14:19:38.847Z,0
2017-03-01T14:20:19.306Z,0
2017-03-01T14:20:59.771Z,0
2017-03-01T14:21:40.202Z,0
2017-03-01T14:22:20.654Z,0
2017-03-01T14:23:01.145Z,0
2017-03-01T14:23:41.608Z,0
2017-03-01T14:24:22.053Z,0
2017-03-01T14:25:02.467Z,0
2017-03-01T14:25:42.904Z,0
2017-03-01T14:26:23.363Z,0
2017-03-01T14:27:03.785Z,0
2017-03-01T14:27:44.239Z,0
2017-03-01T14:28:24.670Z,0
2017-03-01T14:29:05.091Z,0
2017-03-01T14:29:45.571Z,0
2017-03-01T14:30:26.024Z,0
2017-03-01T14:31:06.447Z,0
2017-03-01T14:31:46.897Z,0
2017-03-01T14:32:27.335Z,0
2017-03-01T14:33:07.799Z,0
2017-03-01T14:33:48.217Z,0
2017-03-01T14:34:28.620Z,0
2017-03-01T14:35:09.850Z,0
2017-03-01T14:35:50.251Z,0
2017-03-01T14:36:30.680Z,0
2017-03-01T14:37:11.104Z,0
2017-03-01T14:37:51.498Z,0
2017-03-01T14:38:31.931Z,0
2017-03-01T14:39:12.323Z,0
2017-03-01T14:39:52.771Z,0
2017-03-01T14:40:33.162Z,0
2017-03-01T14:41:13.533Z,0
2017-03-01T14:41:53.981Z,0
2017-03-01T14:42:34.371Z,0
2017-03-01T14:43:14.771Z,0
2017-03-01T14:43:55.195Z,0
2017-03-01T14:44:35.625Z,0
2017-03-01T14:45:16.042Z,0
2017-03-01T14:45:56.502Z,0
2017-03-01T14:46:37.475Z,0
2017-03-01T14:47:17.891Z,0
2017-03-01T14:47:58.309Z,0
2017-03-01T14:48:38.734Z,0
2017-03-01T14:49:19.183Z,0
2017-03-01T14:49:59.621Z,0
2017-03-01T14:50:40.045Z,0
2017-03-01T14:51:20.488Z,0
2017-03-01T14:52:00.939Z,0
2017-03-01T14:52:41.397Z,0
2017-03-01T14:53:21.836Z,0
2017-03-01T14:54:02.295Z,0
2017-03-01T14:54:42.737Z,0
2017-03-01T14:55:23.138Z,0
2017-03-01T14:56:03.586Z,0
2017-03-01T14:56:44.021Z,0
2017-03-01T14:57:24.454Z,0
2017-03-01T14:58:04.885Z,0
2017-03-01T14:58:45.315Z,0
2017-03-01T14:59:25.794Z,0
2017-03-01T15:00:06.257Z,0
2017-03-01T15:00:46.699Z,0
2017-03-01T15:01:27.156Z,0
2017-03-01T15:02:07.572Z,0
2017-03-01T15:02:47.967Z,0
2017-03-01T15:03:28.353Z,0
2017-03-01T15:04:08.792Z,0
2017-03-01T15:04:49.231Z,0
2017-03-01T15:05:29.692Z,0
2017-03-01T15:06:10.196Z,0
2017-03-01T15:06:50.631Z,0
2017-03-01T15:07:31.096Z,0
2017-03-01T15:08:11.528Z,0
2017-03-01T15:08:52.000Z,0
2017-03-01T15:09:32.444Z,0
2017-03-01T15:10:12.904Z,0
2017-03-01T15:10:53.358Z,0
2017-03-01T15:11:33.814Z,0
2017-03-01T15:12:14.287Z,0
2017-03-01T15:12:54.737Z,0
2017-03-01T15:13:35.178Z,0
2017-03-01T15:14:15.592Z,0
2017-03-01T15:14:56.021Z,0
2017-03-01T15:15:36.470Z,0
2017-03-01T15:16:16.890Z,0
2017-03-01T15:16:57.358Z,0
2017-03-01T15:17:37.804Z,0
2017-03-01T15:18:18.245Z,0
2017-03-01T15:18:58.666Z,0
2017-03-01T15:19:39.162Z,0
2017-03-01T15:20:19.635Z,0
2017-03-01T15:21:00.086Z,0
2017-03-01T15:21:40.528Z,0
2017-03-01T15:22:20.980Z,0
2017-03-01T15:23:01.468Z,0
2017-03-01T15:23:41.929Z,0
2017-03-01T15:24:22.381Z,0
2017-03-01T15:25:02.796Z,0
2017-03-01T15:25:43.246Z,0
2017-03-01T15:26:23.696Z,0
2017-03-01T15:27:04.150Z,0
2017-03-01T15:27:44.615Z,0
2017-03-01T15:28:25.044Z,0
2017-03-01T15:29:05.481Z,0
2017-03-01T15:29:45.925Z,0
2017-03-01T15:30:26.356Z,0
2017-03-01T15:31:06.801Z,0
2017-03-01T15:31:47.252Z,0
2017-03-01T15:32:27.726Z,0
2017-03-01T15:33:08.156Z,0
2017-03-01T15:33:48.638Z,0
2017-03-01T15:36:16.550Z,0
2017-03-01T15:36:56.987Z,0
2017-03-01T15:37:37.387Z,0
2017-03-01T15:38:17.822Z,0
2017-03-01T15:38:58.288Z,0
2017-03-01T15:39:38.802Z,0
2017-03-01T15:40:19.278Z,0
2017-03-01T15:40:59.674Z,0
2017-03-01T15:41:40.188Z,0
2017-03-01T15:42:20.597Z,0
2017-03-01T15:43:00.971Z,0
2017-03-01T15:43:41.397Z,0
2017-03-01T15:44:21.839Z,0
2017-03-01T15:45:02.327Z,0
2017-03-01T15:45:42.921Z,0
2017-03-01T15:46:23.353Z,0
2017-03-01T15:47:03.776Z,0
2017-03-01T15:47:44.203Z,0
2017-03-01T15:48:24.652Z,0
2017-03-01T15:49:05.071Z,0
2017-03-01T15:49:45.553Z,0
2017-03-01T15:50:25.966Z,0
2017-03-01T15:51:06.346Z,0
2017-03-01T15:51:46.757Z,0
2017-03-01T15:52:27.191Z,0
2017-03-01T15:53:07.602Z,0
2017-03-01T15:53:48.030Z,0
2017-03-01T15:54:28.433Z,0
2017-03-01T15:55:08.862Z,0
2017-03-01T15:55:49.341Z,0
2017-03-01T15:56:29.810Z,0
2017-03-01T15:57:10.175Z,0
2017-03-01T15:57:50.587Z,0
2017-03-01T15:58:31.080Z,0
2017-03-01T15:59:11.617Z,0
2017-03-01T15:59:52.267Z,0
2017-03-01T16:00:32.647Z,0
2017-03-01T16:01:13.104Z,0
2017-03-01T16:01:53.538Z,0
2017-03-01T16:02:33.973Z,0
2017-03-01T16:03:14.413Z,0
2017-03-01T16:03:54.820Z,0
2017-03-01T16:06:07.453Z,0
2017-03-01T16:06:47.896Z,0
2017-03-01T16:07:28.323Z,0
2017-03-01T16:08:08.747Z,0
2017-03-01T16:08:49.205Z,0
2017-03-01T16:09:29.648Z,0
2017-03-01T16:10:10.058Z,0
2017-03-01T16:10:50.490Z,0
2017-03-01T16:11:30.962Z,0
2017-03-01T16:12:11.353Z,0
2017-03-01T16:12:51.810Z,0
2017-03-01T16:13:32.301Z,0
2017-03-01T16:14:12.705Z,0
2017-03-01T16:14:53.122Z,0
2017-03-01T16:15:33.586Z,0
2017-03-01T16:16:14.014Z,0
2017-03-01T16:16:54.465Z,0
2017-03-01T16:17:34.894Z,0
2017-03-01T16:18:15.345Z,0
2017-03-01T16:18:55.774Z,0
2017-03-01T16:19:36.190Z,0
2017-03-01T16:20:16.619Z,0
2017-03-01T16:20:57.034Z,0
2017-03-01T16:21:37.476Z,0
2017-03-01T16:22:18.389Z,0
2017-03-01T16:22:58.799Z,0
2017-03-01T16:23:39.287Z,0
2017-03-01T16:24:19.817Z,0
2017-03-01T16:25:00.343Z,0
2017-03-01T16:25:40.813Z,0
2017-03-01T16:26:21.321Z,0
2017-03-01T16:27:01.763Z,0
2017-03-01T16:27:42.198Z,0
2017-03-01T16:28:22.686Z,0
2017-03-01T16:29:03.082Z,0
2017-03-01T16:29:43.512Z,0
2017-03-01T16:30:23.942Z,0
2017-03-01T16:31:04.348Z,0
2017-03-01T16:31:44.823Z,0
2017-03-01T16:32:25.242Z,0
2017-03-01T16:33:05.661Z,0
2017-03-01T16:33:46.097Z,0
2017-03-01T16:34:26.506Z,0
2017-03-01T16:35:06.903Z,0
2017-03-01T16:35:47.329Z,0
2017-03-01T16:36:27.718Z,0
2017-03-01T16:37:08.128Z,0
2017-03-01T16:37:48.551Z,0
2017-03-01T16:39:46.195Z,0
2017-03-01T16:40:26.636Z,0
2017-03-01T16:41:06.994Z,0
2017-03-01T16:41:47.401Z,0
2017-03-01T16:42:27.803Z,0
2017-03-01T16:43:08.220Z,0
2017-03-01T16:43:48.610Z,0
2017-03-01T16:44:29.067Z,0
2017-03-01T16:46:26.661Z,0
2017-03-01T16:47:07.067Z,0
2017-03-01T16:47:47.506Z,0
2017-03-01T16:48:27.923Z,0
2017-03-01T16:49:08.315Z,0
2017-03-01T16:49:48.719Z,0
2017-03-01T16:50:29.101Z,0
2017-03-01T16:51:09.485Z,0
2017-03-01T16:51:49.897Z,0
2017-03-01T16:54:07.632Z,0
2017-03-01T16:54:48.057Z,0
2017-03-01T16:55:28.474Z,0
2017-03-01T16:56:08.940Z,0
2017-03-01T16:56:49.382Z,0
2017-03-01T16:57:29.807Z,0
2017-03-01T16:58:10.443Z,0
2017-03-01T16:58:50.884Z,0
2017-03-01T16:59:31.299Z,0
2017-03-01T17:00:11.694Z,0
2017-03-01T17:00:52.091Z,0
2017-03-01T17:01:32.473Z,0
2017-03-01T17:02:12.907Z,0
2017-03-01T17:02:53.303Z,0
2017-03-01T17:03:33.653Z,0
2017-03-01T17:04:14.051Z,0
2017-03-01T17:04:54.472Z,0
2017-03-01T17:05:34.952Z,0
2017-03-01T17:06:15.367Z,0
2017-03-01T17:06:55.771Z,0
2017-03-01T17:07:36.194Z,0
2017-03-01T17:08:16.597Z,0
2017-03-01T17:08:56.982Z,0
2017-03-01T17:09:37.385Z,0
2017-03-01T17:10:17.875Z,0
2017-03-01T17:10:58.275Z,0
2017-03-01T17:11:38.688Z,0
2017-03-01T17:12:19.091Z,0
2017-03-01T17:12:59.499Z,0
2017-03-01T17:13:39.886Z,0
2017-03-01T17:14:20.306Z,0
2017-03-01T17:15:00.702Z,0
2017-03-01T17:15:41.123Z,0
2017-03-01T17:16:21.492Z,0
2017-03-01T17:17:01.906Z,0
2017-03-01T17:17:42.300Z,0
2017-03-01T17:18:22.710Z,0
2017-03-01T17:19:03.139Z,0
2017-03-01T17:19:43.563Z,0
2017-03-01T17:20:23.949Z,0
2017-03-01T17:21:04.377Z,0
2017-03-01T17:23:22.181Z,0
2017-03-01T17:24:02.574Z,0
2017-03-01T17:24:43.020Z,0
2017-03-01T17:25:23.502Z,0
2017-03-01T17:26:03.946Z,0
2017-03-01T17:26:44.328Z,0
2017-03-01T17:27:24.768Z,0
2017-03-01T17:28:05.194Z,0
2017-03-01T17:28:45.634Z,0
2017-03-01T17:29:26.072Z,0
2017-03-01T17:30:06.500Z,0
2017-03-01T17:30:46.940Z,0
2017-03-01T17:31:27.384Z,0
2017-03-01T17:32:07.807Z,0
2017-03-01T17:32:48.252Z,0
2017-03-01T17:33:28.684Z,0
2017-03-01T17:34:09.155Z,0
2017-03-01T17:34:49.533Z,0
2017-03-01T17:35:29.966Z,0
2017-03-01T17:36:10.408Z,0
2017-03-01T17:36:50.848Z,0
2017-03-01T17:37:31.281Z,0
2017-03-01T17:38:11.719Z,0
2017-03-01T17:38:52.143Z,0
2017-03-01T17:39:32.599Z,0
2017-03-01T17:40:13.020Z,0
2017-03-01T17:40:53.458Z,0
2017-03-01T17:41:33.892Z,0
2017-03-01T17:42:14.338Z,0
2017-03-01T17:42:54.773Z,0
2017-03-01T17:43:35.227Z,0
2017-03-01T17:44:15.666Z,0
2017-03-01T17:44:56.106Z,0
2017-03-01T17:45:36.541Z,0
2017-03-01T17:46:16.983Z,0
2017-03-01T17:46:57.416Z,0
2017-03-01T17:47:37.850Z,0
2017-03-01T17:48:18.286Z,0
2017-03-01T17:48:58.721Z,0
2017-03-01T17:49:39.152Z,0
2017-03-01T17:50:19.598Z,0
2017-03-01T17:51:00.039Z,0
2017-03-01T17:51:40.471Z,0
2017-03-01T17:52:20.916Z,0
2017-03-01T17:53:01.340Z,0
2017-03-01T17:53:41.766Z,0
2017-03-01T17:54:22.195Z,0
2017-03-01T17:55:02.635Z,0
2017-03-01T17:55:43.089Z,0
2017-03-01T17:56:23.529Z,0
2017-03-01T17:57:03.980Z,0
2017-03-01T17:57:44.432Z,0
2017-03-01T17:58:24.873Z,0
2017-03-01T17:59:05.315Z,0
2017-03-01T17:59:45.744Z,0
2017-03-01T18:00:26.200Z,0
2017-03-01T18:01:06.630Z,0
2017-03-01T18:01:47.067Z,0
2017-03-01T18:02:27.508Z,0
2017-03-01T18:03:07.939Z,0
2017-03-01T18:03:48.377Z,0
2017-03-01T18:04:28.807Z,0
2017-03-01T18:05:09.260Z,0
2017-03-01T18:05:49.671Z,0
2017-03-01T18:06:30.125Z,0
2017-03-01T18:07:10.544Z,0
2017-03-01T18:07:50.976Z,0
2017-03-01T18:08:31.399Z,0
2017-03-01T18:09:11.839Z,0
2017-03-01T18:09:52.259Z,0
2017-03-01T18:10:32.651Z,0
2017-03-01T18:11:13.108Z,0
2017-03-01T18:11:53.551Z,0
2017-03-01T18:12:33.996Z,0
2017-03-01T18:13:14.415Z,0
2017-03-01T18:13:54.840Z,0
2017-03-01T18:14:35.265Z,0
2017-03-01T18:15:15.680Z,0
2017-03-01T18:15:56.093Z,0
2017-03-01T18:16:36.516Z,0
2017-03-01T18:17:16.936Z,0
2017-03-01T18:17:57.305Z,0
2017-03-01T18:18:37.722Z,0
2017-03-01T18:19:18.120Z,0
2017-03-01T18:19:58.527Z,0
2017-03-01T18:20:38.934Z,0
2017-03-01T18:21:19.377Z,0
2017-03-01T18:21:59.815Z,0
2017-03-01T18:22:40.266Z,0
2017-03-01T18:23:20.716Z,0
2017-03-01T18:24:01.171Z,0
2017-03-01T18:24:41.600Z,0
2017-03-01T18:25:22.034Z,0
2017-03-01T18:26:02.469Z,0
2017-03-01T18:26:42.908Z,0
2017-03-01T18:27:23.377Z,0
2017-03-01T18:28:03.827Z,0
2017-03-01T18:28:44.235Z,0
2017-03-01T18:29:24.672Z,0
2017-03-01T18:30:05.131Z,0
2017-03-01T18:30:45.554Z,0
2017-03-01T18:31:25.956Z,0
2017-03-01T18:32:06.369Z,0
2017-03-01T18:32:46.770Z,0
2017-03-01T18:33:27.162Z,0
2017-03-01T18:34:07.603Z,0
2017-03-01T18:34:48.065Z,0
2017-03-01T18:35:28.482Z,0
2017-03-01T18:36:08.900Z,0
2017-03-01T18:36:49.315Z,0
2017-03-01T18:37:29.717Z,0
2017-03-01T18:38:10.139Z,0
2017-03-01T18:38:50.530Z,0
2017-03-01T18:39:30.949Z,0
2017-03-01T18:40:11.335Z,0
2017-03-01T18:40:51.753Z,0
2017-03-01T18:41:32.184Z,0
2017-03-01T18:42:12.624Z,0
2017-03-01T18:45:47.469Z,0
2017-03-01T18:46:27.899Z,0
2017-03-01T18:47:08.341Z,0
2017-03-01T18:47:48.791Z,0
2017-03-01T18:48:29.217Z,0
2017-03-01T18:49:09.646Z,0
2017-03-01T18:49:50.063Z,0
2017-03-01T18:50:30.468Z,0
2017-03-01T18:51:10.855Z,0
2017-03-01T18:51:51.310Z,0
2017-03-01T18:52:31.760Z,0
2017-03-01T18:53:12.197Z,0
2017-03-01T18:53:52.675Z,0
2017-03-01T18:54:33.158Z,0
2017-03-01T18:55:13.605Z,0
2017-03-01T18:55:54.037Z,0
2017-03-01T18:56:34.467Z,0
2017-03-01T18:57:14.911Z,0
2017-03-01T18:57:55.353Z,0
2017-03-01T18:58:35.794Z,0
2017-03-01T18:59:16.234Z,0
2017-03-01T18:59:56.678Z,0
2017-03-01T19:00:37.109Z,0
2017-03-01T19:01:17.525Z,0
2017-03-01T19:01:57.909Z,0
2017-03-01T19:02:38.343Z,0
2017-03-01T19:03:18.765Z,0
2017-03-01T19:03:59.216Z,0
2017-03-01T19:04:39.641Z,0
2017-03-01T19:05:20.109Z,0
2017-03-01T19:06:00.552Z,0
2017-03-01T19:06:40.987Z,0
2017-03-01T19:07:21.398Z,0
2017-03-01T19:08:01.823Z,0
2017-03-01T19:08:42.260Z,0
2017-03-01T19:09:22.686Z,0
2017-03-01T19:10:03.116Z,0
2017-03-01T19:10:43.555Z,0
2017-03-01T19:11:23.997Z,0
2017-03-01T19:12:04.428Z,0
2017-03-01T19:12:44.859Z,0
2017-03-01T19:13:25.303Z,0
2017-03-01T19:14:05.736Z,0
2017-03-01T19:14:46.157Z,0
2017-03-01T19:15:26.578Z,0
2017-03-01T19:16:07.011Z,0
2017-03-01T19:16:47.447Z,0
2017-03-01T19:17:27.877Z,0
2017-03-01T19:18:08.276Z,0
2017-03-01T19:20:26.044Z,0
2017-03-01T19:21:06.554Z,0
2017-03-01T19:21:46.999Z,0
2017-03-01T19:22:27.441Z,0
2017-03-01T19:23:07.878Z,0
2017-03-01T19:23:48.319Z,0
2017-03-01T19:24:28.753Z,0
2017-03-01T19:25:09.190Z,0
2017-03-01T19:25:49.639Z,0
2017-03-01T19:26:30.073Z,0
2017-03-01T19:27:10.504Z,0
2017-03-01T19:27:50.926Z,0
2017-03-01T19:28:31.358Z,0
2017-03-01T19:29:11.795Z,0
2017-03-01T19:29:52.241Z,0
2017-03-01T19:30:32.696Z,0
2017-03-01T19:31:13.128Z,0
2017-03-01T19:31:53.562Z,0
2017-03-01T19:32:33.991Z,0
2017-03-01T19:33:14.428Z,0
2017-03-01T19:33:54.897Z,0
2017-03-01T19:34:35.284Z,0
2017-03-01T19:35:15.698Z,0
2017-03-01T19:35:56.137Z,0
2017-03-01T19:36:36.568Z,0
2017-03-01T19:37:16.994Z,0
2017-03-01T19:37:57.412Z,0
2017-03-01T19:38:37.842Z,0
2017-03-01T19:39:18.281Z,0
2017-03-01T19:39:58.717Z,0
2017-03-01T19:40:39.116Z,0
2017-03-01T19:41:19.539Z,0
2017-03-01T19:41:59.976Z,0
2017-03-01T19:42:40.376Z,0
2017-03-01T19:43:20.790Z,0
2017-03-01T19:44:01.207Z,0
2017-03-01T19:44:41.602Z,0
2017-03-01T19:45:22.055Z,0
2017-03-01T19:46:02.487Z,0
2017-03-01T19:46:42.920Z,0
2017-03-01T19:47:23.358Z,0
2017-03-01T19:48:03.795Z,0
2017-03-01T19:48:44.221Z,0
2017-03-01T19:49:24.659Z,0
2017-03-01T19:50:05.120Z,0
2017-03-01T19:50:45.616Z,0
2017-03-01T19:51:26.056Z,0
2017-03-01T19:52:06.465Z,0
2017-03-01T19:52:46.894Z,0
2017-03-01T19:53:27.277Z,0
2017-03-01T19:54:07.673Z,0
2017-03-01T19:54:48.070Z,0
2017-03-01T19:55:28.577Z,0
2017-03-01T19:56:08.971Z,0
2017-03-01T19:56:49.391Z,0
2017-03-01T19:57:29.840Z,0
2017-03-01T19:58:10.257Z,0
2017-03-01T19:58:50.680Z,0
2017-03-01T19:59:31.108Z,0
2017-03-01T20:00:11.555Z,0
2017-03-01T20:00:51.986Z,0
2017-03-01T20:01:32.388Z,0
2017-03-01T20:02:12.823Z,0
2017-03-01T20:02:53.272Z,0
2017-03-01T20:03:33.744Z,0
2017-03-01T20:04:14.186Z,0
2017-03-01T20:04:54.595Z,0
2017-03-01T20:05:35.033Z,0
2017-03-01T20:06:15.481Z,0
2017-03-01T20:06:55.926Z,0
2017-03-01T20:07:36.367Z,0
2017-03-01T20:08:16.796Z,0
2017-03-01T20:08:57.219Z,0
2017-03-01T20:09:37.661Z,0
2017-03-01T20:10:18.160Z,0
2017-03-01T20:10:58.587Z,0
2017-03-01T20:11:39.026Z,0
2017-03-01T20:12:19.444Z,0
2017-03-01T20:12:59.874Z,0
2017-03-01T20:13:40.325Z,0
2017-03-01T20:14:20.752Z,0
2017-03-01T20:15:01.159Z,0
2017-03-01T20:15:41.597Z,0
2017-03-01T20:16:22.030Z,0
2017-03-01T20:17:02.464Z,0